createdAt,value
2023-04-30T00:01:44.267Z,9.63
2023-04-30T00:04:13.431Z,9.65
2023-04-30T00:06:42.500Z,9.70
2023-04-30T00:09:13.114Z,9.63
2023-04-30T00:11:41.957Z,9.88
2023-04-30T00:14:11.657Z,9.57
2023-04-30T00:16:40.902Z,9.85
2023-04-30T00:19:10.529Z,9.35
2023-04-30T00:21:39.894Z,8.38
2023-04-30T00:24:09.021Z,8.95
2023-04-30T00:26:39.356Z,9.15
2023-04-30T00:29:08.183Z,9.05
2023-04-30T00:31:37.348Z,8.93
2023-04-30T00:34:06.516Z,9.73
2023-04-30T00:36:35.827Z,8.23
2023-04-30T00:39:05.931Z,7.40
2023-04-30T00:41:38.504Z,7.40
2023-04-30T00:44:07.539Z,8.88
2023-04-30T00:46:36.720Z,7.93
2023-04-30T00:49:05.888Z,7.82
2023-04-30T00:51:36.413Z,7.25
2023-04-30T00:54:06.201Z,7.93
2023-04-30T00:56:36.515Z,6.95
2023-04-30T00:59:07.653Z,7.40
2023-04-30T01:01:37.273Z,6.78
2023-04-30T01:04:06.723Z,9.52
2023-04-30T01:06:35.809Z,8.18
2023-04-30T01:09:04.932Z,7.05
2023-04-30T01:11:44.270Z,6.40
2023-04-30T01:14:23.944Z,6.22
2023-04-30T01:16:59.511Z,7.05
2023-04-30T01:19:43.113Z,7.03
2023-04-30T01:22:24.323Z,7.30
2023-04-30T01:25:08.428Z,6.93
2023-04-30T01:28:02.964Z,7.10
2023-04-30T01:30:33.604Z,7.50
2023-04-30T01:33:03.150Z,7.03
2023-04-30T01:35:50.256Z,6.95
2023-04-30T01:38:29.663Z,7.05
2023-04-30T01:41:05.536Z,6.85
2023-04-30T01:43:45.101Z,6.90
2023-04-30T01:46:23.232Z,7.38
2023-04-30T01:49:00.249Z,7.50
2023-04-30T01:51:34.758Z,7.45
2023-04-30T01:54:09.581Z,7.40
2023-04-30T01:56:46.456Z,7.45
2023-04-30T01:59:18.232Z,7.07
2023-04-30T02:01:47.904Z,7.47
2023-04-30T02:04:17.253Z,6.85
2023-04-30T02:06:48.760Z,7.75
2023-04-30T02:09:18.385Z,7.00
2023-04-30T02:11:47.246Z,7.50
2023-04-30T02:14:18.030Z,7.28
2023-04-30T02:16:49.108Z,7.10
2023-04-30T02:19:18.199Z,6.93
2023-04-30T02:21:47.550Z,6.72
2023-04-30T02:24:16.507Z,7.03
2023-04-30T02:26:45.890Z,6.78
2023-04-30T02:29:15.611Z,7.30
2023-04-30T02:31:46.814Z,6.07
2023-04-30T02:34:15.818Z,6.78
2023-04-30T02:36:45.611Z,7.68
2023-04-30T02:39:15.162Z,7.57
2023-04-30T02:41:44.327Z,7.13
2023-04-30T02:44:14.160Z,6.63
2023-04-30T02:46:43.489Z,7.07
2023-04-30T02:49:14.038Z,6.97
2023-04-30T02:51:43.108Z,6.18
2023-04-30T02:54:12.187Z,7.20
2023-04-30T02:56:41.750Z,6.57
2023-04-30T02:59:12.356Z,6.60
2023-04-30T03:01:42.404Z,7.28
2023-04-30T03:04:12.364Z,8.27
2023-04-30T03:06:43.428Z,6.28
2023-04-30T03:09:13.177Z,6.50
2023-04-30T03:11:42.329Z,7.10
2023-04-30T03:14:11.624Z,6.70
2023-04-30T03:16:41.238Z,6.93
2023-04-30T03:19:10.771Z,6.82
2023-04-30T03:21:40.518Z,6.75
2023-04-30T03:24:11.364Z,6.93
2023-04-30T03:26:44.220Z,6.07
2023-04-30T03:31:42.716Z,6.95
2023-04-30T03:34:12.394Z,7.13
2023-04-30T03:36:41.785Z,6.93
2023-04-30T03:39:13.323Z,6.57
2023-04-30T03:41:42.317Z,6.85
2023-04-30T03:44:16.210Z,6.63
2023-04-30T03:46:45.866Z,6.60
2023-04-30T03:49:14.997Z,6.80
2023-04-30T03:51:44.211Z,6.93
2023-04-30T03:54:14.713Z,6.20
2023-04-30T03:56:44.773Z,7.05
2023-04-30T03:59:15.547Z,7.30
2023-04-30T04:01:45.405Z,7.15
2023-04-30T04:04:16.154Z,7.40
2023-04-30T04:06:45.469Z,6.82
2023-04-30T04:09:16.807Z,7.35
2023-04-30T04:11:46.032Z,6.85
2023-04-30T04:14:16.546Z,7.13
2023-04-30T04:16:46.844Z,7.43
2023-04-30T04:19:16.855Z,6.88
2023-04-30T04:21:47.655Z,7.68
2023-04-30T04:24:19.813Z,7.50
2023-04-30T04:26:51.646Z,7.80
2023-04-30T04:29:20.932Z,6.38
2023-04-30T04:31:51.386Z,7.55
2023-04-30T04:34:21.103Z,7.75
2023-04-30T04:36:50.366Z,7.60
2023-04-30T04:39:20.701Z,8.30
2023-04-30T04:41:49.449Z,7.05
2023-04-30T04:44:19.962Z,7.15
2023-04-30T04:46:50.116Z,8.00
2023-04-30T04:49:19.010Z,7.15
2023-04-30T04:51:47.908Z,7.10
2023-04-30T04:54:17.006Z,7.63
2023-04-30T04:56:47.367Z,7.60
2023-04-30T04:59:18.723Z,7.78
2023-04-30T05:01:49.552Z,7.95
2023-04-30T05:04:18.416Z,7.03
2023-04-30T05:06:47.727Z,7.28
2023-04-30T05:09:16.876Z,7.18
2023-04-30T05:11:49.157Z,8.93
2023-04-30T05:16:48.112Z,7.07
2023-04-30T05:19:17.131Z,8.18
2023-04-30T05:21:47.085Z,7.80
2023-04-30T05:24:16.215Z,8.50
2023-04-30T05:26:46.867Z,7.50
2023-04-30T05:29:15.753Z,8.30
2023-04-30T05:31:45.031Z,8.10
2023-04-30T05:34:14.668Z,8.63
2023-04-30T05:36:44.440Z,8.63
2023-04-30T05:39:13.400Z,8.00
2023-04-30T05:41:42.316Z,9.65
2023-04-30T05:44:14.055Z,8.25
2023-04-30T05:46:43.376Z,9.38
2023-04-30T05:49:13.822Z,8.55
2023-04-30T05:51:42.726Z,8.70
2023-04-30T05:54:14.273Z,9.07
2023-04-30T05:56:44.760Z,8.95
2023-04-30T05:59:15.133Z,8.48
2023-04-30T06:01:44.291Z,9.18
2023-04-30T06:04:13.528Z,9.07
2023-04-30T06:06:43.801Z,9.02
2023-04-30T06:09:14.280Z,9.82
2023-04-30T06:11:45.487Z,10.35
2023-04-30T06:14:16.179Z,9.20
2023-04-30T06:16:46.005Z,11.13
2023-04-30T06:19:14.949Z,11.02
2023-04-30T06:21:44.699Z,10.55
2023-04-30T06:24:13.469Z,11.00
2023-04-30T06:26:46.190Z,10.57
2023-04-30T06:29:16.900Z,11.82
2023-04-30T06:31:46.157Z,11.90
2023-04-30T06:34:15.068Z,11.48
2023-04-30T06:36:44.024Z,12.75
2023-04-30T06:39:13.549Z,12.73
2023-04-30T06:41:43.453Z,12.38
2023-04-30T06:44:13.247Z,16.77
2023-04-30T06:46:44.672Z,13.00
2023-04-30T06:49:13.702Z,12.32
2023-04-30T06:51:42.913Z,13.93
2023-04-30T06:54:11.849Z,12.38
2023-04-30T06:56:41.936Z,13.50
2023-04-30T06:59:11.210Z,14.40
2023-04-30T07:01:40.365Z,12.23
2023-04-30T07:04:10.655Z,13.10
2023-04-30T07:06:40.299Z,12.70
2023-04-30T07:09:09.719Z,13.52
2023-04-30T07:11:40.329Z,13.70
2023-04-30T07:14:09.902Z,12.65
2023-04-30T07:16:38.856Z,14.73
2023-04-30T07:19:09.669Z,14.07
2023-04-30T07:21:39.953Z,14.32
2023-04-30T07:24:09.113Z,13.77
2023-04-30T07:26:38.430Z,15.43
2023-04-30T07:29:07.524Z,14.32
2023-04-30T07:31:36.681Z,15.25
2023-04-30T07:34:05.950Z,14.68
2023-04-30T07:36:37.031Z,14.35
2023-04-30T07:39:08.231Z,15.63
2023-04-30T07:41:37.153Z,15.88
2023-04-30T07:44:06.563Z,15.55
2023-04-30T07:46:36.662Z,14.45
2023-04-30T07:49:05.735Z,15.35
2023-04-30T07:51:34.622Z,14.50
2023-04-30T07:54:03.467Z,15.88
2023-04-30T07:56:33.902Z,14.85
2023-04-30T07:59:03.049Z,14.93
2023-04-30T08:01:32.120Z,14.82
2023-04-30T08:04:01.571Z,16.25
2023-04-30T08:06:30.620Z,14.18
2023-04-30T08:08:59.396Z,14.73
2023-04-30T08:11:28.624Z,15.40
2023-04-30T08:13:58.964Z,14.70
2023-04-30T08:16:28.098Z,15.27
2023-04-30T08:18:57.139Z,15.88
2023-04-30T08:21:28.165Z,15.43
2023-04-30T08:26:27.638Z,14.02
2023-04-30T08:28:58.095Z,14.73
2023-04-30T08:31:27.380Z,12.60
2023-04-30T08:33:56.778Z,12.98
2023-04-30T08:36:28.243Z,12.35
2023-04-30T08:38:57.589Z,12.45
2023-04-30T08:41:28.413Z,11.82
2023-04-30T08:44:02.799Z,10.73
2023-04-30T08:46:33.754Z,10.88
2023-04-30T08:49:03.077Z,10.70
2023-04-30T08:51:34.263Z,10.60
2023-04-30T08:54:03.333Z,11.45
2023-04-30T08:56:33.692Z,10.52
2023-04-30T08:59:03.971Z,9.25
2023-04-30T09:01:32.874Z,9.88
2023-04-30T09:04:01.954Z,10.88
2023-04-30T09:06:31.656Z,10.00
2023-04-30T09:09:10.791Z,9.77
2023-04-30T09:11:39.799Z,9.90
2023-04-30T09:14:10.525Z,10.82
2023-04-30T09:16:50.122Z,9.88
2023-04-30T09:19:26.284Z,8.20
2023-04-30T09:21:56.301Z,9.25
2023-04-30T09:24:25.830Z,9.95
2023-04-30T09:26:55.499Z,9.43
2023-04-30T09:29:38.684Z,7.97
2023-04-30T09:32:10.271Z,7.65
2023-04-30T09:34:39.356Z,8.70
2023-04-30T09:37:08.629Z,9.60
2023-04-30T09:39:49.574Z,9.40
2023-04-30T09:42:19.226Z,8.13
2023-04-30T09:44:50.090Z,8.38
2023-04-30T09:47:21.552Z,6.85
2023-04-30T09:49:52.630Z,6.93
2023-04-30T09:52:22.690Z,6.60
2023-04-30T09:54:51.658Z,7.50
2023-04-30T09:57:24.493Z,6.38
2023-04-30T09:59:55.860Z,6.65
2023-04-30T10:02:26.003Z,7.32
2023-04-30T10:04:59.238Z,7.15
2023-04-30T10:07:36.233Z,7.15
2023-04-30T10:10:09.174Z,7.05
2023-04-30T10:12:44.397Z,7.78
2023-04-30T10:15:17.783Z,7.15
2023-04-30T10:17:51.505Z,6.20
2023-04-30T10:20:23.201Z,6.57
2023-04-30T10:22:53.028Z,6.88
2023-04-30T10:25:23.128Z,5.68
2023-04-30T10:27:52.656Z,7.18
2023-04-30T10:30:24.004Z,7.22
2023-04-30T10:33:14.962Z,7.80
2023-04-30T10:35:51.029Z,6.45
2023-04-30T10:38:25.222Z,7.40
2023-04-30T10:40:57.875Z,7.25
2023-04-30T10:43:27.528Z,6.13
2023-04-30T10:45:59.441Z,5.55
2023-04-30T10:48:30.588Z,6.63
2023-04-30T10:51:00.664Z,5.68
2023-04-30T10:53:32.857Z,5.78
2023-04-30T10:56:06.765Z,4.15
2023-04-30T10:58:37.061Z,5.18
2023-04-30T11:01:10.955Z,5.45
2023-04-30T11:03:43.346Z,4.85
2023-04-30T11:06:13.683Z,4.78
2023-04-30T11:08:45.580Z,3.97
2023-04-30T11:11:21.392Z,4.75
2023-04-30T11:14:00.693Z,5.18
2023-04-30T11:16:32.526Z,3.67
2023-04-30T11:19:10.093Z,4.82
2023-04-30T11:21:42.213Z,4.70
2023-04-30T11:24:11.148Z,4.35
2023-04-30T11:27:13.866Z,4.22
2023-04-30T11:29:44.983Z,4.22
2023-04-30T11:32:16.212Z,4.45
2023-04-30T11:34:45.803Z,4.57
2023-04-30T11:37:20.004Z,4.30
2023-04-30T11:39:50.138Z,4.50
2023-04-30T11:42:21.417Z,4.75
2023-04-30T11:44:50.707Z,4.88
2023-04-30T11:47:21.616Z,3.70
2023-04-30T11:49:53.120Z,4.68
2023-04-30T11:52:22.842Z,3.78
2023-04-30T11:54:51.806Z,4.85
2023-04-30T11:57:20.868Z,4.47
2023-04-30T11:59:50.130Z,5.15
2023-04-30T12:02:20.892Z,4.07
2023-04-30T12:04:49.735Z,4.22
2023-04-30T12:07:20.356Z,4.85
2023-04-30T12:09:55.465Z,4.97
2023-04-30T12:12:30.753Z,4.90
2023-04-30T12:14:59.584Z,4.55
2023-04-30T12:17:36.942Z,4.63
2023-04-30T12:20:07.082Z,4.50
2023-04-30T12:22:36.976Z,4.20
2023-04-30T12:25:10.500Z,4.63
2023-04-30T12:27:39.994Z,4.30
2023-04-30T12:30:10.888Z,4.72
2023-04-30T12:32:43.579Z,4.22
2023-04-30T12:35:16.968Z,4.32
2023-04-30T12:37:47.927Z,3.88
2023-04-30T12:40:17.219Z,3.97
2023-04-30T12:42:47.138Z,3.92
2023-04-30T12:45:51.274Z,3.72
2023-04-30T12:48:23.372Z,3.38
2023-04-30T12:50:56.986Z,3.88
2023-04-30T12:53:26.046Z,3.70
2023-04-30T12:56:12.328Z,3.35
2023-04-30T12:58:41.912Z,3.90
2023-04-30T13:01:13.693Z,2.95
2023-04-30T13:03:44.107Z,4.15
2023-04-30T13:06:13.303Z,3.42
2023-04-30T13:08:56.992Z,3.70
2023-04-30T13:11:27.906Z,3.97
2023-04-30T13:13:56.955Z,3.35
2023-04-30T13:16:26.416Z,3.40
2023-04-30T13:18:57.024Z,2.50
2023-04-30T13:21:25.978Z,3.20
2023-04-30T13:23:56.589Z,2.70
2023-04-30T13:26:26.943Z,2.80
2023-04-30T13:28:56.235Z,3.13
2023-04-30T13:31:25.462Z,3.63
2023-04-30T13:33:54.745Z,3.00
2023-04-30T13:36:25.231Z,2.70
2023-04-30T13:38:54.417Z,3.13
2023-04-30T13:41:23.396Z,3.00
2023-04-30T13:43:52.703Z,2.75
2023-04-30T13:46:22.021Z,3.17
2023-04-30T13:48:53.206Z,2.78
2023-04-30T13:51:22.208Z,2.72
2023-04-30T13:53:52.943Z,2.78
2023-04-30T13:56:21.801Z,3.13
2023-04-30T13:58:50.678Z,2.75
2023-04-30T14:01:19.627Z,3.75
2023-04-30T14:03:48.752Z,3.15
2023-04-30T14:06:18.055Z,2.15
2023-04-30T14:08:46.880Z,2.38
2023-04-30T14:11:17.163Z,2.40
2023-04-30T14:13:45.990Z,2.50
2023-04-30T14:16:15.184Z,2.88
2023-04-30T14:18:44.400Z,3.05
2023-04-30T14:21:13.272Z,2.58
2023-04-30T14:23:42.074Z,2.60
2023-04-30T14:26:11.312Z,2.80
2023-04-30T14:28:41.612Z,2.65
2023-04-30T14:31:10.730Z,2.50
2023-04-30T14:33:39.556Z,2.50
2023-04-30T14:36:09.050Z,2.83
2023-04-30T14:38:37.820Z,2.50
2023-04-30T14:41:06.755Z,2.50
2023-04-30T14:43:35.732Z,2.28
2023-04-30T14:46:06.728Z,2.20
2023-04-30T14:48:36.103Z,2.40
2023-04-30T14:51:05.499Z,2.50
2023-04-30T14:53:34.362Z,2.55
2023-04-30T14:56:03.614Z,3.40
2023-04-30T14:58:32.430Z,2.40
2023-04-30T15:01:01.373Z,2.67
2023-04-30T15:03:32.164Z,2.83
2023-04-30T15:06:01.191Z,2.60
2023-04-30T15:08:30.370Z,2.53
2023-04-30T15:10:59.224Z,2.33
2023-04-30T15:13:28.251Z,2.30
2023-04-30T15:15:57.228Z,2.25
2023-04-30T15:18:26.523Z,2.67
2023-04-30T15:20:56.884Z,2.28
2023-04-30T15:23:25.858Z,2.63
2023-04-30T15:25:55.391Z,2.53
2023-04-30T15:28:24.672Z,1.67
2023-04-30T15:30:53.733Z,2.13
2023-04-30T15:33:24.562Z,1.98
2023-04-30T15:35:54.798Z,1.90
2023-04-30T15:38:25.144Z,1.98
2023-04-30T15:40:53.921Z,1.65
2023-04-30T15:43:23.218Z,2.08
2023-04-30T15:45:52.000Z,2.20
2023-04-30T15:48:20.837Z,2.67
2023-04-30T15:50:50.288Z,2.78
2023-04-30T15:53:19.445Z,2.03
2023-04-30T15:55:50.873Z,2.20
2023-04-30T15:58:19.935Z,2.13
2023-04-30T16:00:48.952Z,1.98
2023-04-30T16:03:17.869Z,2.00
2023-04-30T16:05:46.928Z,1.90
2023-04-30T16:08:16.539Z,2.45
2023-04-30T16:10:45.413Z,2.08
2023-04-30T16:13:15.881Z,2.50
2023-04-30T16:15:44.840Z,2.30
2023-04-30T16:18:13.702Z,2.00
2023-04-30T16:20:43.259Z,2.38
2023-04-30T16:23:12.119Z,2.60
2023-04-30T16:25:40.926Z,2.20
2023-04-30T16:28:09.714Z,2.17
2023-04-30T16:30:40.124Z,1.70
2023-04-30T16:33:09.659Z,1.85
2023-04-30T16:35:38.673Z,1.60
2023-04-30T16:38:07.837Z,1.67
2023-04-30T16:40:36.833Z,1.95
2023-04-30T16:43:06.360Z,2.47
2023-04-30T16:45:35.244Z,1.80
2023-04-30T16:48:06.073Z,1.90
2023-04-30T16:50:35.074Z,2.83
2023-04-30T16:53:03.876Z,2.72
2023-04-30T16:55:35.951Z,1.90
2023-04-30T17:00:33.581Z,1.73
2023-04-30T17:03:02.560Z,2.28
2023-04-30T17:05:33.665Z,2.00
2023-04-30T17:08:02.892Z,1.73
2023-04-30T17:10:32.168Z,1.80
2023-04-30T17:13:04.049Z,2.40
2023-04-30T17:15:33.317Z,1.50
2023-04-30T17:18:02.209Z,1.80
2023-04-30T17:20:32.555Z,1.50
2023-04-30T17:23:02.009Z,1.80
2023-04-30T17:25:31.956Z,1.58
2023-04-30T17:28:01.665Z,1.48
2023-04-30T17:30:30.807Z,1.40
2023-04-30T17:33:00.478Z,1.70
2023-04-30T17:35:29.613Z,1.85
2023-04-30T17:38:00.714Z,1.73
2023-04-30T17:40:29.602Z,2.30
2023-04-30T17:42:58.375Z,2.35
2023-04-30T17:45:27.979Z,5.20
2023-04-30T17:47:57.215Z,7.03
2023-04-30T17:50:26.188Z,4.45
2023-04-30T17:52:55.200Z,1.90
2023-04-30T17:55:25.777Z,1.60
2023-04-30T17:57:55.475Z,1.40
2023-04-30T18:00:24.973Z,1.48
2023-04-30T18:02:53.887Z,2.08
2023-04-30T18:05:23.013Z,1.98
2023-04-30T18:07:51.839Z,1.88
2023-04-30T18:10:20.731Z,1.92
2023-04-30T18:12:51.345Z,1.90
2023-04-30T18:15:20.323Z,2.00
2023-04-30T18:17:49.501Z,1.90
2023-04-30T18:20:18.630Z,1.77
2023-04-30T18:22:47.398Z,2.45
2023-04-30T18:25:17.344Z,1.77
2023-04-30T18:27:46.729Z,3.10
2023-04-30T18:30:16.954Z,3.22
2023-04-30T18:32:45.901Z,3.25
2023-04-30T18:35:14.921Z,3.65
2023-04-30T18:37:43.894Z,2.70
2023-04-30T18:40:13.322Z,2.70
2023-04-30T18:42:42.387Z,2.28
2023-04-30T18:45:12.030Z,1.80
2023-04-30T18:47:42.723Z,1.77
2023-04-30T18:50:17.051Z,2.40
2023-04-30T18:52:46.191Z,2.00
2023-04-30T18:55:15.145Z,2.13
2023-04-30T18:57:44.462Z,3.08
2023-04-30T19:00:14.727Z,2.25
2023-04-30T19:02:45.139Z,2.70
2023-04-30T19:05:14.244Z,2.35
2023-04-30T19:07:43.222Z,1.83
2023-04-30T19:10:12.353Z,1.90
2023-04-30T19:12:42.897Z,1.52
2023-04-30T19:15:15.108Z,1.75
2023-04-30T19:17:45.590Z,2.05
2023-04-30T19:20:14.754Z,1.77
2023-04-30T19:22:44.109Z,2.40
2023-04-30T19:25:13.156Z,3.03
2023-04-30T19:27:41.992Z,3.22
2023-04-30T19:30:11.968Z,2.40
2023-04-30T19:32:40.991Z,2.13
2023-04-30T19:35:13.634Z,2.90
2023-04-30T19:37:42.814Z,3.33
2023-04-30T19:40:12.663Z,2.88
2023-04-30T19:42:41.638Z,3.00
2023-04-30T19:45:12.065Z,2.65
2023-04-30T19:47:41.275Z,2.70
2023-04-30T19:50:12.586Z,2.78
2023-04-30T19:52:41.617Z,3.65
2023-04-30T19:55:11.296Z,3.53
2023-04-30T19:57:40.258Z,2.83
2023-04-30T20:00:13.882Z,2.80
2023-04-30T20:02:42.991Z,2.65
2023-04-30T20:05:13.445Z,2.70
2023-04-30T20:07:42.570Z,3.15
2023-04-30T20:10:11.819Z,3.75
2023-04-30T20:12:40.620Z,2.63
2023-04-30T20:15:10.135Z,2.75
2023-04-30T20:17:39.120Z,2.72
2023-04-30T20:20:09.296Z,2.35
2023-04-30T20:22:39.629Z,2.75
2023-04-30T20:25:09.047Z,2.70
2023-04-30T20:27:38.268Z,2.90
2023-04-30T20:30:10.615Z,2.92
2023-04-30T20:32:39.676Z,2.83
2023-04-30T20:35:09.393Z,2.97
2023-04-30T20:37:39.865Z,2.63
2023-04-30T20:40:09.976Z,3.25
2023-04-30T20:42:40.888Z,3.80
2023-04-30T20:45:11.434Z,2.97
2023-04-30T20:47:42.039Z,2.80
2023-04-30T20:50:11.831Z,3.53
2023-04-30T20:52:42.781Z,3.83
2023-04-30T20:55:12.289Z,4.15
2023-04-30T20:57:41.218Z,2.85
2023-04-30T21:00:11.973Z,3.25
2023-04-30T21:02:41.059Z,3.50
2023-04-30T21:05:10.431Z,3.40
2023-04-30T21:07:39.442Z,2.80
2023-04-30T21:10:10.551Z,3.30
2023-04-30T21:12:39.620Z,3.08
2023-04-30T21:15:10.095Z,2.90
2023-04-30T21:17:39.118Z,3.50
2023-04-30T21:20:09.536Z,4.85
2023-04-30T21:22:40.009Z,3.05
2023-04-30T21:25:12.281Z,3.08
2023-04-30T21:27:41.284Z,4.63
2023-04-30T21:30:10.956Z,3.85
2023-04-30T21:32:39.922Z,3.72
2023-04-30T21:35:09.237Z,5.43
2023-04-30T21:37:38.197Z,3.63
2023-04-30T21:40:10.427Z,3.20
2023-04-30T21:42:39.207Z,3.17
2023-04-30T21:45:09.840Z,2.97
2023-04-30T21:47:38.528Z,3.15
2023-04-30T21:50:08.878Z,3.10
2023-04-30T21:52:37.755Z,2.95
2023-04-30T21:55:09.776Z,3.10
2023-04-30T21:57:38.648Z,2.90
2023-04-30T22:00:14.337Z,3.17
2023-04-30T22:02:49.743Z,2.67
2023-04-30T22:05:19.749Z,2.80
2023-04-30T22:07:49.225Z,2.80
2023-04-30T22:10:19.505Z,2.80
2023-04-30T22:12:48.383Z,3.20
2023-04-30T22:15:17.500Z,2.95
2023-04-30T22:17:47.827Z,2.47
2023-04-30T22:20:16.859Z,2.90
2023-04-30T22:22:45.678Z,3.42
2023-04-30T22:25:14.639Z,3.20
2023-04-30T22:27:45.723Z,3.25
2023-04-30T22:30:14.631Z,3.28
2023-04-30T22:32:43.483Z,2.60
2023-04-30T22:35:17.392Z,2.90
2023-04-30T22:37:46.661Z,2.80
2023-04-30T22:40:16.663Z,3.20
2023-04-30T22:42:47.544Z,2.67
2023-04-30T22:45:16.701Z,2.97
2023-04-30T22:47:46.162Z,3.03
2023-04-30T22:50:16.886Z,3.00
2023-04-30T22:52:46.576Z,3.28
2023-04-30T22:55:15.383Z,3.28
2023-04-30T22:57:44.436Z,2.30
2023-04-30T23:00:16.290Z,2.85
2023-04-30T23:02:45.088Z,2.50
2023-04-30T23:05:17.389Z,2.85
2023-04-30T23:07:48.776Z,3.00
2023-04-30T23:10:17.974Z,2.75
2023-04-30T23:12:46.960Z,2.75
2023-04-30T23:15:18.579Z,2.35
2023-04-30T23:17:47.823Z,2.63
2023-04-30T23:20:16.966Z,2.60
2023-04-30T23:22:46.154Z,2.35
2023-04-30T23:25:17.140Z,3.60
2023-04-30T23:27:46.549Z,2.08
2023-04-30T23:30:17.014Z,2.55
2023-04-30T23:32:46.189Z,3.17
2023-04-30T23:35:14.998Z,2.97
2023-04-30T23:37:43.886Z,3.08
2023-04-30T23:40:15.412Z,2.65
2023-04-30T23:42:44.462Z,2.88
2023-04-30T23:45:13.608Z,3.28
2023-04-30T23:47:43.934Z,2.88
2023-04-30T23:50:15.327Z,2.60
2023-04-30T23:52:44.399Z,2.35
2023-04-30T23:55:13.792Z,2.80
2023-04-30T23:57:42.680Z,2.33
